Kadena Air Base

Airport
ICAO code: 
RODN
IATA Code: 
DNA
Summary
ICAO Region: 
APAC
Territory: 
Location: 
Kadena, Okinawa
Serving: 
Kadena
Elevation: 
146 ft
Coordinates: 
Aerial View: 
26° 21' 20.203" N, 127° 46' 3.479" E
Metar
Observation
RODN 011308Z AUTO 01009KT 10SM FEW041 BKN050 OVC065 17/10 A3009 RMK AO2 RAB1259E08RAB08 SLP196 $
Station
Kadena Ab
Date/Time
2021-12-01 13:08:00
Wind direction
10°
Wind speed
09 kts
Lowest cloud amount
few clouds
Temperature
17°C
Dew point
10°C
Humidity
63%
Weather condition
n/a

Runways

Designator Length Width Surface Rops
05L/23R 3688 91 ASP Yes/Yes
05R/23L 3688 61 CON Yes/Yes
Airport map: 
Aerial View: 

SKYbrary Partners:

Safety knowledge contributed by: